createdAt,value
2018-12-29T00:01:28.771Z,5.70
2018-12-29T00:03:59.833Z,5.70
2018-12-29T00:06:30.430Z,5.70
2018-12-29T00:09:01.699Z,5.60
2018-12-29T00:11:33.862Z,5.60
2018-12-29T00:14:05.966Z,5.60
2018-12-29T00:16:36.963Z,5.50
2018-12-29T00:19:07.614Z,5.50
2018-12-29T00:21:38.143Z,5.50
2018-12-29T00:24:09.304Z,5.50
2018-12-29T00:26:40.560Z,5.40
2018-12-29T00:29:11.279Z,5.40
2018-12-29T00:31:41.899Z,5.40
2018-12-29T00:34:12.485Z,5.30
2018-12-29T00:36:43.549Z,5.30
2018-12-29T00:39:14.055Z,5.40
2018-12-29T00:41:44.345Z,5.40
2018-12-29T00:44:17.452Z,5.40
2018-12-29T00:46:47.468Z,5.50
2018-12-29T00:49:17.900Z,5.40
2018-12-29T00:51:51.275Z,5.50
2018-12-29T00:54:22.470Z,5.40
2018-12-29T00:56:53.379Z,5.50
2018-12-29T00:59:24.228Z,5.40
2018-12-29T01:01:54.640Z,5.40
2018-12-29T01:04:25.757Z,5.40
2018-12-29T01:06:57.087Z,5.40
2018-12-29T01:09:28.129Z,5.50
2018-12-29T01:11:59.142Z,5.40
2018-12-29T01:14:30.243Z,5.40
2018-12-29T01:17:01.912Z,5.50
2018-12-29T01:19:32.889Z,5.50
2018-12-29T01:22:04.236Z,5.50
2018-12-29T01:24:35.000Z,5.50
2018-12-29T01:27:05.589Z,5.50
2018-12-29T01:29:36.450Z,5.40
2018-12-29T01:32:07.417Z,5.50
2018-12-29T01:34:38.201Z,5.50
2018-12-29T01:37:08.548Z,5.40
2018-12-29T01:39:39.057Z,5.40
2018-12-29T01:42:09.669Z,5.40
2018-12-29T01:44:40.661Z,5.40
2018-12-29T01:47:11.103Z,5.40
2018-12-29T01:49:42.840Z,5.40
2018-12-29T01:52:13.492Z,5.40
2018-12-29T01:54:43.914Z,5.40
2018-12-29T01:57:15.725Z,5.40
2018-12-29T01:59:46.332Z,5.50
2018-12-29T02:02:17.179Z,5.40
2018-12-29T02:04:48.004Z,5.40
2018-12-29T02:07:18.879Z,5.50
2018-12-29T02:09:50.539Z,5.50
2018-12-29T02:12:21.500Z,5.40
2018-12-29T02:14:55.535Z,5.30
2018-12-29T02:17:33.168Z,5.20
2018-12-29T02:20:04.944Z,5.20
2018-12-29T02:22:35.517Z,5.20
2018-12-29T02:25:06.727Z,5.30
2018-12-29T02:27:39.879Z,5.30
2018-12-29T02:30:10.024Z,5.20
2018-12-29T02:32:40.922Z,5.30
2018-12-29T02:35:12.438Z,5.30
2018-12-29T02:37:47.454Z,5.30
2018-12-29T02:40:18.607Z,5.30
2018-12-29T02:42:49.412Z,5.40
2018-12-29T02:45:19.800Z,5.40
2018-12-29T02:47:50.368Z,5.40
2018-12-29T02:50:20.944Z,5.30
2018-12-29T02:52:52.407Z,5.30
2018-12-29T02:55:22.994Z,5.30
2018-12-29T02:57:54.279Z,5.40
2018-12-29T03:00:24.654Z,5.50
2018-12-29T03:02:55.563Z,5.40
2018-12-29T03:05:26.588Z,5.40
2018-12-29T03:07:57.568Z,5.50
2018-12-29T03:10:28.289Z,5.40
2018-12-29T03:12:59.324Z,5.30
2018-12-29T03:15:30.674Z,5.40
2018-12-29T03:18:01.070Z,5.50
2018-12-29T03:20:32.051Z,5.50
2018-12-29T03:23:04.099Z,5.40
2018-12-29T03:25:37.376Z,5.40
2018-12-29T03:28:08.214Z,5.40
2018-12-29T03:30:38.738Z,5.30
2018-12-29T03:33:10.691Z,5.40
2018-12-29T03:35:41.568Z,5.50
2018-12-29T03:38:12.396Z,5.40
2018-12-29T03:40:43.320Z,5.40
2018-12-29T03:43:14.119Z,5.30
2018-12-29T03:45:48.993Z,5.20
2018-12-29T03:48:17.774Z,5.20
2018-12-29T03:50:48.492Z,5.20
2018-12-29T03:53:28.874Z,5.20
2018-12-29T03:55:59.655Z,5.20
2018-12-29T03:58:30.438Z,5.30
2018-12-29T04:01:01.150Z,5.40
2018-12-29T04:03:31.537Z,5.30
2018-12-29T04:06:02.371Z,5.20
2018-12-29T04:08:32.814Z,5.20
2018-12-29T04:11:03.378Z,5.20
2018-12-29T04:13:34.623Z,5.30
2018-12-29T04:16:06.375Z,5.30
2018-12-29T04:18:36.942Z,5.30
2018-12-29T04:21:07.899Z,5.30
2018-12-29T04:23:38.387Z,5.30
2018-12-29T04:26:09.413Z,5.40
2018-12-29T04:28:40.164Z,5.40
2018-12-29T04:31:10.847Z,5.50
2018-12-29T04:33:42.527Z,5.50
2018-12-29T04:36:13.471Z,5.50
2018-12-29T04:38:44.287Z,5.50
2018-12-29T04:41:15.652Z,5.40
2018-12-29T04:43:46.448Z,5.40
2018-12-29T04:46:18.330Z,5.50
2018-12-29T04:48:48.758Z,5.40
2018-12-29T04:51:20.069Z,5.50
2018-12-29T04:53:50.533Z,5.60
2018-12-29T04:56:21.495Z,5.50
2018-12-29T04:58:52.006Z,5.50
2018-12-29T05:01:22.611Z,5.40
2018-12-29T05:03:53.010Z,5.50
2018-12-29T05:06:23.459Z,5.50
2018-12-29T05:08:54.392Z,5.50
2018-12-29T05:11:27.808Z,5.60
2018-12-29T05:14:00.845Z,5.60
2018-12-29T05:16:31.395Z,5.60
2018-12-29T05:19:01.813Z,5.60
2018-12-29T05:21:33.150Z,5.60
2018-12-29T05:24:03.967Z,5.70
2018-12-29T05:26:34.484Z,5.70
2018-12-29T05:29:05.012Z,5.80
2018-12-29T05:31:35.977Z,5.80
2018-12-29T05:34:07.201Z,5.70
2018-12-29T05:36:37.871Z,5.60
2018-12-29T05:39:08.767Z,5.70
2018-12-29T05:41:39.115Z,5.80
2018-12-29T05:44:09.391Z,5.90
2018-12-29T05:46:39.727Z,5.90
2018-12-29T05:49:10.288Z,5.90
2018-12-29T05:51:40.998Z,5.90
2018-12-29T05:54:14.211Z,5.90
2018-12-29T05:56:44.809Z,5.90
2018-12-29T05:59:15.560Z,5.80
2018-12-29T06:01:48.946Z,5.70
2018-12-29T06:04:19.611Z,5.70
2018-12-29T06:06:51.876Z,5.60
2018-12-29T06:09:22.628Z,5.50
2018-12-29T06:11:54.940Z,5.50
2018-12-29T06:14:26.679Z,5.50
2018-12-29T06:16:57.295Z,5.50
2018-12-29T06:19:28.091Z,5.50
2018-12-29T06:21:58.977Z,5.50
2018-12-29T06:24:29.620Z,5.60
2018-12-29T06:27:00.607Z,5.50
2018-12-29T06:29:31.526Z,5.60
2018-12-29T06:32:02.270Z,5.60
2018-12-29T06:34:33.416Z,5.60
2018-12-29T06:37:05.020Z,5.70
2018-12-29T06:39:35.715Z,5.80
2018-12-29T06:42:06.463Z,5.70
2018-12-29T06:44:37.252Z,5.80
2018-12-29T06:47:08.017Z,5.70
2018-12-29T06:49:38.858Z,5.70
2018-12-29T06:52:09.827Z,5.70
2018-12-29T06:54:40.500Z,5.70
2018-12-29T06:57:11.992Z,5.70
2018-12-29T06:59:42.880Z,5.70
2018-12-29T07:02:14.113Z,5.60
2018-12-29T07:04:44.820Z,5.60
2018-12-29T07:07:15.296Z,5.50
2018-12-29T07:09:46.051Z,5.50
2018-12-29T07:12:16.710Z,5.50
2018-12-29T07:14:47.714Z,5.40
2018-12-29T07:17:18.444Z,5.30
2018-12-29T07:19:49.153Z,5.40
2018-12-29T07:22:19.902Z,5.40
2018-12-29T07:24:50.791Z,5.40
2018-12-29T07:27:22.781Z,5.40
2018-12-29T07:29:53.802Z,5.40
2018-12-29T07:32:25.087Z,5.40
2018-12-29T07:34:55.950Z,5.40
2018-12-29T07:37:26.610Z,5.40
2018-12-29T07:39:57.587Z,5.40
2018-12-29T07:42:28.293Z,5.40
2018-12-29T07:45:00.088Z,5.40
2018-12-29T07:47:31.888Z,5.50
2018-12-29T07:50:02.786Z,5.50
2018-12-29T07:52:34.114Z,5.50
2018-12-29T07:55:04.691Z,5.60
2018-12-29T07:57:35.531Z,5.60
2018-12-29T08:00:07.313Z,5.60
2018-12-29T08:02:38.647Z,5.70
2018-12-29T08:05:28.768Z,5.70
2018-12-29T08:07:59.269Z,5.70
2018-12-29T08:10:30.017Z,5.80
2018-12-29T08:13:00.420Z,5.90
2018-12-29T08:15:30.781Z,5.90
2018-12-29T08:18:05.273Z,5.70
2018-12-29T08:20:35.951Z,5.80
2018-12-29T08:23:06.446Z,5.90
2018-12-29T08:25:37.456Z,5.90
2018-12-29T08:28:08.180Z,5.90
2018-12-29T08:30:38.578Z,5.90
2018-12-29T08:33:09.176Z,5.90
2018-12-29T08:35:39.627Z,5.90
2018-12-29T08:38:10.627Z,6.00
2018-12-29T08:40:50.228Z,6.00
2018-12-29T08:43:21.356Z,6.00
2018-12-29T08:45:51.814Z,6.00
2018-12-29T08:48:22.506Z,6.10
2018-12-29T08:50:53.568Z,6.00
2018-12-29T08:53:24.041Z,6.00
2018-12-29T08:55:58.377Z,6.00
2018-12-29T08:58:29.295Z,6.00
2018-12-29T09:01:00.484Z,6.00
2018-12-29T09:03:34.202Z,6.00
2018-12-29T09:06:04.945Z,6.00
2018-12-29T09:08:35.304Z,6.10
2018-12-29T09:11:05.743Z,6.10
2018-12-29T09:13:39.236Z,6.20
2018-12-29T09:16:09.755Z,6.20
2018-12-29T09:18:40.366Z,6.20
2018-12-29T09:21:15.084Z,6.30
2018-12-29T09:23:46.753Z,6.30
2018-12-29T09:26:17.457Z,6.40
2018-12-29T09:28:48.125Z,6.30
2018-12-29T09:31:18.575Z,6.20
2018-12-29T09:33:49.952Z,6.20
2018-12-29T09:36:21.414Z,6.20
2018-12-29T09:38:52.565Z,6.10
2018-12-29T09:41:23.466Z,6.10
2018-12-29T09:43:54.333Z,6.00
2018-12-29T09:46:24.778Z,6.10
2018-12-29T09:48:56.019Z,6.10
2018-12-29T09:51:27.502Z,6.10
2018-12-29T09:53:59.709Z,6.00
2018-12-29T09:56:30.536Z,6.00
2018-12-29T09:59:02.537Z,6.00
2018-12-29T10:01:33.298Z,6.00
2018-12-29T10:04:04.212Z,5.90
2018-12-29T10:06:35.400Z,5.90
2018-12-29T10:09:07.259Z,5.90
2018-12-29T10:11:38.680Z,5.90
2018-12-29T10:14:09.108Z,5.80
2018-12-29T10:16:39.625Z,5.80
2018-12-29T10:19:10.132Z,5.90
2018-12-29T10:21:40.659Z,6.00
2018-12-29T10:24:11.138Z,6.00
2018-12-29T10:26:41.735Z,6.10
2018-12-29T10:29:12.408Z,6.00
2018-12-29T10:31:42.931Z,6.00
2018-12-29T10:34:15.909Z,6.00
2018-12-29T10:36:46.373Z,6.00
2018-12-29T10:39:17.017Z,6.00
2018-12-29T10:41:48.172Z,6.00
2018-12-29T10:44:20.285Z,6.00
2018-12-29T10:46:50.927Z,6.10
2018-12-29T10:49:21.778Z,6.10
2018-12-29T10:51:52.454Z,6.10
2018-12-29T10:54:22.948Z,6.10
2018-12-29T10:56:53.842Z,6.10
2018-12-29T10:59:24.943Z,6.20
2018-12-29T11:01:55.343Z,6.30
2018-12-29T11:04:25.847Z,6.20
2018-12-29T11:06:56.477Z,6.20
2018-12-29T11:09:26.978Z,6.10
2018-12-29T11:11:57.578Z,6.20
2018-12-29T11:14:28.190Z,6.10
2018-12-29T11:17:01.946Z,6.00
2018-12-29T11:19:32.377Z,5.90
2018-12-29T11:22:03.361Z,6.00
2018-12-29T11:24:34.213Z,6.00
2018-12-29T11:27:07.669Z,6.00
2018-12-29T11:29:39.530Z,6.00
2018-12-29T11:32:12.005Z,6.00
2018-12-29T11:34:42.405Z,6.00
2018-12-29T11:37:12.853Z,5.90
2018-12-29T11:39:43.396Z,5.90
2018-12-29T11:42:14.186Z,5.80
2018-12-29T11:44:45.511Z,5.80
2018-12-29T11:47:16.347Z,5.80
2018-12-29T11:49:48.193Z,5.90
2018-12-29T11:52:19.283Z,5.90
2018-12-29T11:54:50.266Z,5.90
2018-12-29T11:57:21.109Z,5.90
2018-12-29T11:59:51.883Z,6.00
2018-12-29T12:02:24.646Z,6.10
2018-12-29T12:04:55.505Z,6.20
2018-12-29T12:07:26.927Z,6.10
2018-12-29T12:09:58.096Z,6.10
2018-12-29T12:12:29.489Z,6.00
2018-12-29T12:15:00.091Z,6.00
2018-12-29T12:17:31.014Z,6.10
2018-12-29T12:20:01.901Z,6.10
2018-12-29T12:22:32.448Z,6.10
2018-12-29T12:25:03.660Z,6.10
2018-12-29T12:27:34.113Z,6.10
2018-12-29T12:30:06.017Z,6.00
2018-12-29T12:32:36.927Z,6.00
2018-12-29T12:35:08.062Z,6.00
2018-12-29T12:37:38.590Z,6.10
2018-12-29T12:40:09.347Z,6.20
2018-12-29T12:42:40.335Z,6.10
2018-12-29T12:45:10.943Z,6.10
2018-12-29T12:47:41.748Z,6.00
2018-12-29T12:50:12.344Z,6.10
2018-12-29T12:52:43.826Z,6.10
2018-12-29T12:55:15.344Z,6.10
2018-12-29T12:57:45.822Z,6.10
2018-12-29T13:00:19.082Z,6.20
2018-12-29T13:02:50.055Z,6.20
2018-12-29T13:05:21.037Z,6.20
2018-12-29T13:07:52.406Z,6.20
2018-12-29T13:10:23.416Z,6.10
2018-12-29T13:12:55.370Z,6.00
2018-12-29T13:15:26.962Z,6.00
2018-12-29T13:17:59.191Z,6.10
2018-12-29T13:20:30.208Z,6.10
2018-12-29T13:23:01.311Z,5.90
2018-12-29T13:25:32.692Z,5.90
2018-12-29T13:28:03.631Z,5.90
2018-12-29T13:30:34.726Z,5.90
2018-12-29T13:33:05.406Z,5.80
2018-12-29T13:35:36.186Z,5.80
2018-12-29T13:38:07.108Z,5.80
2018-12-29T13:40:39.188Z,5.90
2018-12-29T13:43:10.527Z,5.90
2018-12-29T13:45:41.216Z,5.90
2018-12-29T13:48:12.273Z,5.90
2018-12-29T13:50:43.552Z,5.90
2018-12-29T13:53:14.894Z,5.90
2018-12-29T13:55:45.416Z,6.00
2018-12-29T13:58:17.070Z,6.00
2018-12-29T14:00:47.737Z,6.00
2018-12-29T14:03:18.327Z,6.00
2018-12-29T14:05:50.689Z,6.00
2018-12-29T14:08:21.646Z,6.00
2018-12-29T14:10:53.849Z,6.10
2018-12-29T14:13:24.199Z,6.10
2018-12-29T14:15:54.975Z,6.10
2018-12-29T14:18:28.332Z,6.10
2018-12-29T14:20:58.787Z,6.10
2018-12-29T14:23:29.702Z,6.00
2018-12-29T14:26:01.898Z,6.00
2018-12-29T14:28:35.428Z,6.10
2018-12-29T14:31:06.306Z,6.10
2018-12-29T14:33:37.250Z,6.10
2018-12-29T14:36:08.103Z,6.20
2018-12-29T14:38:38.636Z,6.20
2018-12-29T14:41:09.295Z,6.20
2018-12-29T14:43:40.374Z,6.20
2018-12-29T14:46:11.971Z,6.20
2018-12-29T14:48:43.652Z,6.10
2018-12-29T14:51:14.596Z,6.20
2018-12-29T14:53:45.605Z,6.20
2018-12-29T14:56:17.412Z,6.20
2018-12-29T14:58:48.092Z,6.30
2018-12-29T15:01:18.617Z,6.30
2018-12-29T15:03:49.533Z,6.30
2018-12-29T15:06:20.325Z,6.40
2018-12-29T15:08:51.079Z,6.30
2018-12-29T15:11:23.083Z,6.20
2018-12-29T15:13:53.621Z,6.30
2018-12-29T15:16:24.450Z,6.30
2018-12-29T15:18:54.842Z,6.30
2018-12-29T15:21:26.781Z,6.30
2018-12-29T15:23:57.266Z,6.20
2018-12-29T15:26:27.662Z,6.20
2018-12-29T15:28:58.091Z,6.30
2018-12-29T15:31:28.709Z,6.20
2018-12-29T15:34:04.186Z,6.20
2018-12-29T15:36:35.761Z,6.20
2018-12-29T15:39:07.734Z,6.20
2018-12-29T15:41:39.014Z,6.20
2018-12-29T15:44:09.458Z,6.10
2018-12-29T15:46:40.144Z,6.20
2018-12-29T15:49:11.068Z,6.20
2018-12-29T15:51:41.667Z,6.10
2018-12-29T15:54:14.144Z,6.10
2018-12-29T15:56:44.578Z,6.00
2018-12-29T15:59:16.682Z,6.00
2018-12-29T16:01:47.221Z,5.90
2018-12-29T16:04:17.843Z,5.90
2018-12-29T16:06:48.730Z,5.90
2018-12-29T16:09:19.549Z,5.90
2018-12-29T16:11:50.421Z,5.80
2018-12-29T16:14:21.258Z,5.80
2018-12-29T16:16:53.594Z,5.80
2018-12-29T16:19:24.208Z,5.80
2018-12-29T16:21:55.277Z,5.80
2018-12-29T16:24:26.369Z,5.80
2018-12-29T16:26:57.109Z,5.90
2018-12-29T16:29:28.141Z,5.90
2018-12-29T16:31:58.853Z,5.90
2018-12-29T16:34:31.197Z,5.90
2018-12-29T16:37:02.011Z,5.90
2018-12-29T16:39:32.993Z,5.90
2018-12-29T16:42:03.554Z,5.90
2018-12-29T16:44:33.727Z,5.90
2018-12-29T16:47:04.788Z,5.90
2018-12-29T16:49:36.410Z,5.90
2018-12-29T16:52:09.447Z,5.80
2018-12-29T16:54:39.881Z,5.80
2018-12-29T16:57:10.858Z,5.70
2018-12-29T16:59:44.278Z,5.70
2018-12-29T17:02:15.826Z,5.70
2018-12-29T17:04:46.489Z,5.70
2018-12-29T17:07:17.437Z,5.70
2018-12-29T17:09:48.543Z,5.60
2018-12-29T17:12:23.496Z,5.60
2018-12-29T17:14:54.040Z,5.60
2018-12-29T17:17:26.222Z,5.50
2018-12-29T17:19:57.663Z,5.50
2018-12-29T17:22:28.160Z,5.60
2018-12-29T17:24:58.990Z,5.50
2018-12-29T17:27:30.188Z,5.50
2018-12-29T17:30:01.715Z,5.60
2018-12-29T17:32:32.527Z,5.50
2018-12-29T17:35:03.451Z,5.50
2018-12-29T17:37:34.341Z,5.60
2018-12-29T17:40:05.011Z,5.60
2018-12-29T17:42:36.312Z,5.60
2018-12-29T17:45:08.219Z,5.60
2018-12-29T17:47:39.101Z,5.60
2018-12-29T17:50:10.028Z,5.60
2018-12-29T17:52:42.148Z,5.60
2018-12-29T17:55:14.895Z,5.60
2018-12-29T17:57:45.726Z,5.60
2018-12-29T18:00:16.469Z,5.60
2018-12-29T18:02:47.497Z,5.60
2018-12-29T18:05:18.520Z,5.60
2018-12-29T18:07:50.415Z,5.60
2018-12-29T18:10:22.815Z,5.70
2018-12-29T18:12:55.003Z,5.70
2018-12-29T18:15:26.141Z,5.60
2018-12-29T18:17:56.889Z,5.60
2018-12-29T18:20:27.925Z,5.70
2018-12-29T18:22:58.693Z,5.60
2018-12-29T18:25:31.411Z,5.60
2018-12-29T18:28:02.622Z,5.70
2018-12-29T18:30:34.631Z,5.70
2018-12-29T18:33:06.739Z,5.60
2018-12-29T18:35:38.643Z,5.60
2018-12-29T18:38:09.843Z,5.60
2018-12-29T18:40:41.757Z,5.70
2018-12-29T18:43:14.624Z,5.70
2018-12-29T18:45:45.675Z,5.70
2018-12-29T18:48:17.114Z,5.70
2018-12-29T18:50:48.978Z,5.70
2018-12-29T18:53:21.490Z,5.70
2018-12-29T18:55:53.304Z,5.80
2018-12-29T18:58:24.353Z,5.80
2018-12-29T19:00:55.488Z,5.70
2018-12-29T19:03:26.743Z,5.80
2018-12-29T19:05:58.865Z,5.80
2018-12-29T19:08:30.552Z,5.90
2018-12-29T19:11:01.648Z,5.80
2018-12-29T19:13:33.023Z,5.80
2018-12-29T19:16:04.944Z,5.80
2018-12-29T19:18:41.441Z,5.80
2018-12-29T19:21:08.935Z,5.80
2018-12-29T19:23:40.538Z,5.90
2018-12-29T19:26:11.948Z,6.00
2018-12-29T19:28:43.838Z,5.90
2018-12-29T19:31:14.959Z,5.90
2018-12-29T19:33:48.127Z,5.90
2018-12-29T19:36:19.348Z,5.90
2018-12-29T19:38:51.275Z,6.00
2018-12-29T19:41:22.352Z,6.00
2018-12-29T19:43:54.372Z,6.00
2018-12-29T19:46:26.374Z,6.00
2018-12-29T19:48:58.305Z,6.10
2018-12-29T19:51:30.630Z,6.10
2018-12-29T19:54:03.091Z,6.10
2018-12-29T19:56:34.453Z,6.00
2018-12-29T19:59:06.444Z,6.00
2018-12-29T20:01:38.040Z,6.00
2018-12-29T20:04:12.299Z,6.00
2018-12-29T20:06:43.602Z,6.00
2018-12-29T20:09:14.263Z,6.00
2018-12-29T20:11:45.180Z,6.00
2018-12-29T20:14:16.660Z,6.00
2018-12-29T20:16:48.514Z,6.00
2018-12-29T20:19:19.361Z,6.10
2018-12-29T20:21:53.405Z,6.20
2018-12-29T20:24:24.707Z,6.30
2018-12-29T20:26:55.860Z,6.50
2018-12-29T20:29:27.036Z,6.40
2018-12-29T20:31:59.513Z,6.40
2018-12-29T20:34:30.002Z,6.30
2018-12-29T20:37:00.939Z,6.30
2018-12-29T20:39:32.188Z,6.30
2018-12-29T20:42:07.883Z,6.20
2018-12-29T20:44:38.892Z,6.10
2018-12-29T20:47:09.903Z,6.10
2018-12-29T20:49:41.596Z,6.20
2018-12-29T20:52:14.402Z,6.20
2018-12-29T20:54:45.303Z,6.30
2018-12-29T20:57:16.700Z,6.30
2018-12-29T20:59:47.909Z,6.10
2018-12-29T21:02:19.246Z,6.10
2018-12-29T21:04:50.544Z,6.00
2018-12-29T21:07:21.652Z,6.10
2018-12-29T21:09:53.005Z,6.10
2018-12-29T21:12:25.105Z,6.10
2018-12-29T21:14:56.646Z,6.00
2018-12-29T21:17:27.743Z,6.00
2018-12-29T21:19:58.925Z,6.00
2018-12-29T21:22:29.987Z,6.00
2018-12-29T21:25:01.845Z,6.00
2018-12-29T21:27:33.128Z,6.00
2018-12-29T21:30:07.094Z,5.90
2018-12-29T21:32:37.959Z,5.90
2018-12-29T21:35:10.198Z,5.90
2018-12-29T21:37:41.271Z,6.00
2018-12-29T21:40:12.529Z,6.00
2018-12-29T21:42:44.071Z,6.00
2018-12-29T21:45:14.946Z,6.00
2018-12-29T21:47:46.135Z,5.90
2018-12-29T21:50:17.014Z,5.90
2018-12-29T21:52:51.330Z,5.80
2018-12-29T21:55:22.445Z,5.80
2018-12-29T21:57:52.931Z,5.90
2018-12-29T22:00:23.744Z,5.90
2018-12-29T22:02:54.938Z,5.90
2018-12-29T22:05:26.936Z,5.90
2018-12-29T22:07:57.849Z,5.90
2018-12-29T22:10:28.656Z,5.80
2018-12-29T22:12:59.635Z,5.80
2018-12-29T22:15:31.837Z,5.70
2018-12-29T22:18:03.154Z,5.70
2018-12-29T22:20:34.107Z,5.80
2018-12-29T22:23:05.335Z,5.80
2018-12-29T22:25:36.216Z,5.80
2018-12-29T22:28:08.225Z,5.80
2018-12-29T22:30:41.732Z,5.80
2018-12-29T22:33:12.262Z,5.80
2018-12-29T22:35:42.792Z,5.70
2018-12-29T22:38:13.578Z,5.70
2018-12-29T22:40:44.619Z,5.70
2018-12-29T22:43:15.355Z,5.60
2018-12-29T22:45:47.027Z,5.60
2018-12-29T22:48:17.870Z,5.60
2018-12-29T22:50:49.495Z,5.60
2018-12-29T22:53:20.331Z,5.60
2018-12-29T22:55:50.668Z,5.60
2018-12-29T22:58:21.165Z,5.50
2018-12-29T23:00:52.075Z,5.50
2018-12-29T23:03:22.475Z,5.60
2018-12-29T23:05:53.496Z,5.60
2018-12-29T23:08:24.186Z,5.50
2018-12-29T23:10:55.255Z,5.60
2018-12-29T23:13:29.520Z,5.60
2018-12-29T23:15:59.824Z,5.60
2018-12-29T23:18:30.530Z,5.60
2018-12-29T23:21:01.217Z,5.60
2018-12-29T23:23:32.695Z,5.60
2018-12-29T23:26:03.990Z,5.60
2018-12-29T23:28:34.580Z,5.60
2018-12-29T23:31:05.416Z,5.60
2018-12-29T23:33:36.203Z,5.60
2018-12-29T23:36:07.211Z,5.70
2018-12-29T23:38:38.536Z,5.70
2018-12-29T23:41:09.566Z,5.70
2018-12-29T23:43:41.934Z,5.60
2018-12-29T23:46:12.581Z,5.70
2018-12-29T23:48:43.592Z,5.60
2018-12-29T23:51:15.668Z,5.60
2018-12-29T23:53:46.423Z,5.40
2018-12-29T23:56:18.724Z,5.40
2018-12-29T23:58:49.658Z,5.40
